createdAt,value
2022-09-29T00:00:55.411Z,13.65
2022-09-29T00:03:23.584Z,10.48
2022-09-29T00:05:54.965Z,12.77
2022-09-29T00:08:24.587Z,10.20
2022-09-29T00:10:51.824Z,12.27
2022-09-29T00:13:19.467Z,15.02
2022-09-29T00:16:00.376Z,12.35
2022-09-29T00:18:29.370Z,12.35
2022-09-29T00:21:01.823Z,9.68
2022-09-29T00:23:30.049Z,8.57
2022-09-29T00:26:02.828Z,9.95
2022-09-29T00:28:30.749Z,9.52
2022-09-29T00:31:02.095Z,9.13
2022-09-29T00:33:30.979Z,12.60
2022-09-29T00:36:06.925Z,8.52
2022-09-29T00:38:35.316Z,10.75
2022-09-29T00:41:03.687Z,11.18
2022-09-29T00:43:51.767Z,10.02
2022-09-29T00:46:42.729Z,13.73
2022-09-29T00:49:18.730Z,9.80
2022-09-29T00:51:56.087Z,9.45
2022-09-29T00:54:27.564Z,10.07
2022-09-29T00:56:56.631Z,11.05
2022-09-29T00:59:56.124Z,8.80
2022-09-29T01:02:24.114Z,11.23
2022-09-29T01:04:53.974Z,9.02
2022-09-29T01:07:23.529Z,11.10
2022-09-29T01:09:53.898Z,11.93
2022-09-29T01:12:21.954Z,13.25
2022-09-29T01:14:49.396Z,11.05
2022-09-29T01:17:17.242Z,13.38
2022-09-29T01:20:01.948Z,9.95
2022-09-29T01:23:08.159Z,9.85
2022-09-29T01:26:08.759Z,10.13
2022-09-29T01:28:50.457Z,10.65
2022-09-29T01:31:36.031Z,11.13
2022-09-29T01:34:24.098Z,10.90
2022-09-29T01:37:12.419Z,12.32
2022-09-29T01:40:08.973Z,12.75
2022-09-29T01:42:53.437Z,8.32
2022-09-29T01:45:35.019Z,12.13
2022-09-29T01:48:18.784Z,9.00
2022-09-29T01:50:48.697Z,10.50
2022-09-29T01:53:48.606Z,13.07
2022-09-29T01:56:26.483Z,10.95
2022-09-29T01:59:22.140Z,11.98
2022-09-29T02:01:52.124Z,13.03
2022-09-29T02:04:25.550Z,16.08
2022-09-29T02:07:01.037Z,11.57
2022-09-29T02:09:33.177Z,10.77
2022-09-29T02:12:01.547Z,12.30
2022-09-29T02:14:37.836Z,12.77
2022-09-29T02:17:21.184Z,10.95
2022-09-29T02:19:51.460Z,7.88
2022-09-29T02:22:18.893Z,9.07
2022-09-29T02:24:46.364Z,9.75
2022-09-29T02:27:13.805Z,11.00
2022-09-29T02:29:41.893Z,8.93
2022-09-29T02:32:10.196Z,12.68
2022-09-29T02:34:42.189Z,9.23
2022-09-29T02:37:33.378Z,11.75
2022-09-29T02:40:18.510Z,10.05
2022-09-29T02:42:45.575Z,7.72
2022-09-29T02:45:21.279Z,8.95
2022-09-29T02:48:13.745Z,8.57
2022-09-29T02:51:10.851Z,8.40
2022-09-29T02:53:53.038Z,8.35
2022-09-29T02:56:44.735Z,9.10
2022-09-29T02:59:45.924Z,12.63
2022-09-29T03:02:16.377Z,10.07
2022-09-29T03:04:43.280Z,9.77
2022-09-29T03:07:10.285Z,6.72
2022-09-29T03:09:37.178Z,9.95
2022-09-29T03:12:04.119Z,10.90
2022-09-29T03:14:31.060Z,8.52
2022-09-29T03:16:57.971Z,8.82
2022-09-29T03:19:25.098Z,10.32
2022-09-29T03:21:52.043Z,7.05
2022-09-29T03:24:19.100Z,9.85
2022-09-29T03:26:46.119Z,10.95
2022-09-29T03:29:13.174Z,10.05
2022-09-29T03:31:40.834Z,9.25
2022-09-29T03:34:07.895Z,10.02
2022-09-29T03:36:34.811Z,7.15
2022-09-29T03:39:01.732Z,9.75
2022-09-29T03:41:28.726Z,7.78
2022-09-29T03:43:55.670Z,8.88
2022-09-29T03:46:22.641Z,9.82
2022-09-29T03:48:49.595Z,8.40
2022-09-29T03:51:16.927Z,8.60
2022-09-29T03:53:43.916Z,9.38
2022-09-29T03:56:11.178Z,9.27
2022-09-29T03:58:38.100Z,10.02
2022-09-29T04:01:05.093Z,12.60
2022-09-29T04:03:32.085Z,7.40
2022-09-29T04:05:59.224Z,8.57
2022-09-29T04:08:26.112Z,7.50
2022-09-29T04:10:53.203Z,9.07
2022-09-29T04:13:21.680Z,7.97
2022-09-29T04:15:49.423Z,12.02
2022-09-29T04:18:16.745Z,9.70
2022-09-29T04:20:43.692Z,7.90
2022-09-29T04:23:10.587Z,9.82
2022-09-29T04:25:37.483Z,9.60
2022-09-29T04:28:04.488Z,6.38
2022-09-29T04:30:31.454Z,13.25
2022-09-29T04:32:58.566Z,9.77
2022-09-29T04:35:25.590Z,8.48
2022-09-29T04:37:57.191Z,8.48
2022-09-29T04:40:25.249Z,10.80
2022-09-29T04:42:52.360Z,9.55
2022-09-29T04:45:19.307Z,10.45
2022-09-29T04:47:46.191Z,8.45
2022-09-29T04:50:13.114Z,8.35
2022-09-29T04:52:44.969Z,14.15
2022-09-29T04:55:12.552Z,7.25
2022-09-29T04:57:41.635Z,11.10
2022-09-29T05:00:09.339Z,8.77
2022-09-29T05:02:36.714Z,9.82
2022-09-29T05:05:05.478Z,10.15
2022-09-29T05:07:35.194Z,8.02
2022-09-29T05:10:02.781Z,10.00
2022-09-29T05:12:29.847Z,8.60
2022-09-29T05:14:56.879Z,13.52
2022-09-29T05:17:23.916Z,10.23
2022-09-29T05:19:50.860Z,8.75
2022-09-29T05:22:24.271Z,10.50
2022-09-29T05:24:52.040Z,9.43
2022-09-29T05:27:19.421Z,9.60
2022-09-29T05:29:46.409Z,10.55
2022-09-29T05:32:13.556Z,10.18
2022-09-29T05:34:40.660Z,8.50
2022-09-29T05:37:07.656Z,8.13
2022-09-29T05:39:35.814Z,11.80
2022-09-29T05:42:06.610Z,11.45
2022-09-29T05:44:33.862Z,11.65
2022-09-29T05:47:00.832Z,7.75
2022-09-29T05:49:27.808Z,9.68
2022-09-29T05:51:54.798Z,12.30
2022-09-29T05:54:21.896Z,10.88
2022-09-29T05:56:48.892Z,7.75
2022-09-29T05:59:15.995Z,9.70
2022-09-29T06:01:43.616Z,11.50
2022-09-29T06:04:11.044Z,12.77
2022-09-29T06:06:40.221Z,10.27
2022-09-29T06:09:07.981Z,13.05
2022-09-29T06:11:35.028Z,9.30
2022-09-29T06:14:03.543Z,10.55
2022-09-29T06:16:32.190Z,9.52
2022-09-29T06:19:01.325Z,11.13
2022-09-29T06:21:29.325Z,10.43
2022-09-29T06:23:57.816Z,8.70
2022-09-29T06:26:26.115Z,9.88
2022-09-29T06:28:54.101Z,13.15
2022-09-29T06:31:24.074Z,8.90
2022-09-29T06:33:51.488Z,13.85
2022-09-29T06:36:57.138Z,9.23
2022-09-29T06:39:24.361Z,11.32
2022-09-29T06:41:55.800Z,13.30
2022-09-29T06:44:24.657Z,10.85
2022-09-29T06:46:51.914Z,11.98
2022-09-29T06:49:20.116Z,13.63
2022-09-29T06:51:47.418Z,13.05
2022-09-29T06:54:16.541Z,7.75
2022-09-29T06:56:47.971Z,8.70
2022-09-29T06:59:15.241Z,9.95
2022-09-29T07:01:42.495Z,12.90
2022-09-29T07:04:09.923Z,8.82
2022-09-29T07:06:37.107Z,13.23
2022-09-29T07:09:04.396Z,11.23
2022-09-29T07:11:31.436Z,12.93
2022-09-29T07:13:58.397Z,11.02
2022-09-29T07:16:25.447Z,15.02
2022-09-29T07:18:53.203Z,10.65
2022-09-29T07:21:22.147Z,12.38
2022-09-29T07:23:50.323Z,13.10
2022-09-29T07:26:18.008Z,14.45
2022-09-29T07:28:46.788Z,13.30
2022-09-29T07:31:19.249Z,9.77
2022-09-29T07:33:49.199Z,15.32
2022-09-29T07:36:19.246Z,15.73
2022-09-29T07:38:50.373Z,15.55
2022-09-29T07:41:20.131Z,15.05
2022-09-29T07:43:47.463Z,13.02
2022-09-29T07:46:14.602Z,13.85
2022-09-29T07:48:41.595Z,14.63
2022-09-29T07:51:17.227Z,15.73
2022-09-29T07:56:18.601Z,14.85
2022-09-29T07:58:47.362Z,15.98
2022-09-29T08:01:16.064Z,15.38
2022-09-29T08:03:49.002Z,14.65
2022-09-29T08:06:16.243Z,13.80
2022-09-29T08:08:54.364Z,16.52
2022-09-29T08:11:31.063Z,15.38
2022-09-29T08:13:58.967Z,18.60
2022-09-29T08:16:26.481Z,16.50
2022-09-29T08:18:53.576Z,18.80
2022-09-29T08:21:20.597Z,20.65
2022-09-29T08:23:47.784Z,15.73
2022-09-29T08:26:17.064Z,15.32
2022-09-29T08:28:45.152Z,18.83
2022-09-29T08:31:20.367Z,17.05
2022-09-29T08:33:49.977Z,17.83
2022-09-29T08:36:20.479Z,16.70
2022-09-29T08:38:52.768Z,16.80
2022-09-29T08:41:33.836Z,21.55
2022-09-29T08:44:08.160Z,15.85
2022-09-29T08:46:53.845Z,13.60
2022-09-29T08:49:37.297Z,18.65
2022-09-29T08:52:16.806Z,17.38
2022-09-29T08:54:49.201Z,15.77
2022-09-29T08:57:19.391Z,40.20
2022-09-29T08:59:59.017Z,21.23
2022-09-29T09:02:34.752Z,14.65
2022-09-29T09:05:46.855Z,16.98
2022-09-29T09:08:38.101Z,17.92
2022-09-29T09:11:22.126Z,26.17
2022-09-29T09:13:55.661Z,18.88
2022-09-29T09:16:40.479Z,16.38
2022-09-29T09:19:32.546Z,16.48
2022-09-29T09:22:14.618Z,18.25
2022-09-29T09:25:01.429Z,14.30
2022-09-29T09:27:40.771Z,16.50
2022-09-29T09:30:15.320Z,17.00
2022-09-29T09:32:57.768Z,17.35
2022-09-29T09:35:57.011Z,15.82
2022-09-29T09:38:34.024Z,14.57
2022-09-29T09:41:02.131Z,20.02
2022-09-29T09:43:36.784Z,15.60
2022-09-29T09:46:07.293Z,19.30
2022-09-29T09:48:41.791Z,13.82
2022-09-29T09:54:29.530Z,14.88
2022-09-29T09:57:18.090Z,16.45
2022-09-29T10:00:03.630Z,22.15
2022-09-29T10:03:02.102Z,18.27
2022-09-29T10:05:47.162Z,16.75
2022-09-29T10:08:29.264Z,19.50
2022-09-29T10:10:59.324Z,17.23
2022-09-29T10:13:29.750Z,18.08
2022-09-29T10:16:36.375Z,22.55
2022-09-29T10:19:04.888Z,16.83
2022-09-29T10:21:42.741Z,18.63
2022-09-29T10:24:23.146Z,19.80
2022-09-29T10:26:53.195Z,15.73
2022-09-29T10:29:39.619Z,20.98
2022-09-29T10:32:14.815Z,15.70
2022-09-29T10:34:47.139Z,13.95
2022-09-29T10:37:29.141Z,17.90
2022-09-29T10:40:08.099Z,12.98
2022-09-29T10:42:37.982Z,22.90
2022-09-29T10:45:04.854Z,15.35
2022-09-29T10:47:32.805Z,16.15
2022-09-29T10:50:19.923Z,15.60
2022-09-29T10:52:56.882Z,19.67
2022-09-29T10:55:27.174Z,20.70
2022-09-29T10:57:58.436Z,17.38
2022-09-29T11:00:28.244Z,17.35
2022-09-29T11:03:20.412Z,15.93
2022-09-29T11:05:58.683Z,16.10
2022-09-29T11:08:27.762Z,17.85
2022-09-29T11:11:22.172Z,21.15
2022-09-29T11:13:49.715Z,20.83
2022-09-29T11:16:28.999Z,17.52
2022-09-29T11:19:04.853Z,15.35
2022-09-29T11:21:40.618Z,19.77
2022-09-29T11:24:37.062Z,18.95
2022-09-29T11:27:24.874Z,17.58
2022-09-29T11:30:01.153Z,16.38
2022-09-29T11:33:01.228Z,20.83
2022-09-29T11:35:43.900Z,22.70
2022-09-29T11:38:29.665Z,21.95
2022-09-29T11:41:02.439Z,17.15
2022-09-29T11:43:51.782Z,12.50
2022-09-29T11:46:50.218Z,19.08
2022-09-29T11:49:28.767Z,15.75
2022-09-29T11:52:05.603Z,14.38
2022-09-29T11:54:57.419Z,18.13
2022-09-29T11:57:42.644Z,17.08
2022-09-29T12:00:15.804Z,15.23
2022-09-29T12:02:50.630Z,13.27
2022-09-29T12:05:39.350Z,13.60
2022-09-29T12:08:45.432Z,12.48
2022-09-29T12:11:47.452Z,11.33
2022-09-29T12:14:37.702Z,11.70
2022-09-29T12:17:14.507Z,13.60
2022-09-29T12:19:45.097Z,10.80
2022-09-29T12:22:19.311Z,14.65
2022-09-29T12:24:54.233Z,16.48
2022-09-29T12:27:42.743Z,13.00
2022-09-29T12:30:24.746Z,10.70
2022-09-29T12:32:58.722Z,9.23
2022-09-29T12:35:37.978Z,10.35
2022-09-29T12:38:25.955Z,9.93
2022-09-29T12:41:13.454Z,11.10
2022-09-29T12:43:53.547Z,10.80
2022-09-29T12:46:38.545Z,9.80
2022-09-29T12:49:29.171Z,9.57
2022-09-29T12:51:57.451Z,10.50
2022-09-29T12:54:24.389Z,11.45
2022-09-29T12:56:55.239Z,10.38
2022-09-29T12:59:52.862Z,10.48
2022-09-29T13:02:22.785Z,9.25
2022-09-29T13:05:04.564Z,7.32
2022-09-29T13:07:39.574Z,8.32
2022-09-29T13:10:37.146Z,10.68
2022-09-29T13:13:07.141Z,9.32
2022-09-29T13:15:52.873Z,15.90
2022-09-29T13:18:34.888Z,10.15
2022-09-29T13:21:13.716Z,8.80
2022-09-29T13:24:10.077Z,7.18
2022-09-29T13:29:38.251Z,24.80
2022-09-29T13:32:05.386Z,7.93
2022-09-29T13:34:36.601Z,8.48
2022-09-29T13:37:14.223Z,9.85
2022-09-29T13:39:57.984Z,9.52
2022-09-29T13:42:34.189Z,7.18
2022-09-29T13:45:19.638Z,9.05
2022-09-29T13:47:46.676Z,9.20
2022-09-29T13:50:53.299Z,9.18
2022-09-29T13:53:25.507Z,9.20
2022-09-29T13:55:56.796Z,11.02
2022-09-29T13:58:29.159Z,12.35
2022-09-29T14:00:59.727Z,10.88
2022-09-29T14:03:47.636Z,9.75
2022-09-29T14:06:39.591Z,10.68
2022-09-29T14:09:12.565Z,10.82
2022-09-29T14:11:49.541Z,9.10
2022-09-29T14:14:25.089Z,7.45
2022-09-29T14:17:02.383Z,8.82
2022-09-29T14:19:36.532Z,6.38
2022-09-29T14:22:23.850Z,7.95
2022-09-29T14:24:52.625Z,6.75
2022-09-29T14:27:33.141Z,5.72
2022-09-29T14:30:09.175Z,6.82
2022-09-29T14:32:58.303Z,5.80
2022-09-29T14:35:26.406Z,5.80
2022-09-29T14:38:01.036Z,8.75
2022-09-29T14:40:28.285Z,9.73
2022-09-29T14:43:13.741Z,7.70
2022-09-29T14:46:33.148Z,7.35
2022-09-29T14:49:31.007Z,7.05
2022-09-29T14:52:07.887Z,7.90
2022-09-29T14:54:46.976Z,6.80
2022-09-29T14:57:20.857Z,5.00
2022-09-29T14:59:59.858Z,5.78
2022-09-29T15:02:34.264Z,4.78
2022-09-29T15:05:27.323Z,6.82
2022-09-29T15:07:58.253Z,9.63
2022-09-29T15:10:30.675Z,6.22
2022-09-29T15:13:21.058Z,7.05
2022-09-29T15:15:49.249Z,7.57
2022-09-29T15:18:53.862Z,7.35
2022-09-29T15:21:26.607Z,6.72
2022-09-29T15:24:00.763Z,7.57
2022-09-29T15:26:31.320Z,6.40
2022-09-29T15:28:59.179Z,8.23
2022-09-29T15:31:34.332Z,6.30
2022-09-29T15:34:04.316Z,7.85
2022-09-29T15:36:38.122Z,9.60
2022-09-29T15:39:13.359Z,12.75
2022-09-29T15:41:40.369Z,8.68
2022-09-29T15:44:18.671Z,7.47
2022-09-29T15:46:52.076Z,12.52
2022-09-29T15:49:23.192Z,9.07
2022-09-29T15:52:11.864Z,7.75
2022-09-29T15:54:44.809Z,8.38
2022-09-29T15:57:44.080Z,11.02
2022-09-29T16:00:22.949Z,9.90
2022-09-29T16:03:10.778Z,11.10
2022-09-29T16:05:45.474Z,12.20
2022-09-29T16:08:22.088Z,12.45
2022-09-29T16:10:55.763Z,13.02
2022-09-29T16:13:27.046Z,11.63
2022-09-29T16:16:06.083Z,16.38
2022-09-29T16:18:37.877Z,13.43
2022-09-29T16:21:21.012Z,12.25
2022-09-29T16:24:02.608Z,11.38
2022-09-29T16:26:32.560Z,15.95
2022-09-29T16:29:13.181Z,14.15
2022-09-29T16:31:42.235Z,11.98
2022-09-29T16:34:35.623Z,17.25
2022-09-29T16:37:18.670Z,13.15
2022-09-29T16:39:48.577Z,11.77
2022-09-29T16:42:24.517Z,14.88
2022-09-29T16:44:54.359Z,10.05
2022-09-29T16:47:27.408Z,7.00
2022-09-29T16:50:02.574Z,6.30
2022-09-29T16:55:17.093Z,5.05
2022-09-29T16:58:08.840Z,5.85
2022-09-29T17:00:38.851Z,7.00
2022-09-29T17:03:06.007Z,5.88
2022-09-29T17:05:40.313Z,5.70
2022-09-29T17:08:17.870Z,6.57
2022-09-29T17:10:44.903Z,5.15
2022-09-29T17:13:13.969Z,5.55
2022-09-29T17:15:41.816Z,9.70
2022-09-29T17:18:13.557Z,7.72
2022-09-29T17:20:41.056Z,6.05
2022-09-29T17:23:08.990Z,17.42
2022-09-29T17:25:37.783Z,12.13
2022-09-29T17:28:12.824Z,12.18
2022-09-29T17:30:41.878Z,8.55
2022-09-29T17:33:12.206Z,10.45
2022-09-29T17:35:41.127Z,7.90
2022-09-29T17:38:09.314Z,8.70
2022-09-29T17:40:39.258Z,10.80
2022-09-29T17:43:06.231Z,10.68
2022-09-29T17:45:40.111Z,7.38
2022-09-29T17:48:07.742Z,9.98
2022-09-29T17:50:40.716Z,10.48
2022-09-29T17:53:10.087Z,5.63
2022-09-29T17:55:37.382Z,7.60
2022-09-29T17:58:05.693Z,8.60
2022-09-29T18:00:38.349Z,8.48
2022-09-29T18:03:12.616Z,6.80
2022-09-29T18:05:41.827Z,7.78
2022-09-29T18:08:15.473Z,7.07
2022-09-29T18:10:55.015Z,8.52
2022-09-29T18:13:24.215Z,9.55
2022-09-29T18:15:51.376Z,10.52
2022-09-29T18:18:21.805Z,6.90
2022-09-29T18:20:50.559Z,8.70
2022-09-29T18:23:19.477Z,7.22
2022-09-29T18:25:49.058Z,9.43
2022-09-29T18:28:18.004Z,11.05
2022-09-29T18:30:48.676Z,6.55
2022-09-29T18:33:18.277Z,10.05
2022-09-29T18:35:50.948Z,8.45
2022-09-29T18:38:17.952Z,10.00
2022-09-29T18:40:47.176Z,8.85
2022-09-29T18:43:14.655Z,11.40
2022-09-29T18:45:43.393Z,8.25
2022-09-29T18:48:15.149Z,9.23
2022-09-29T18:50:44.391Z,35.28
2022-09-29T18:53:13.079Z,15.75
2022-09-29T18:55:43.844Z,11.75
2022-09-29T18:58:19.133Z,7.20
2022-09-29T19:00:50.267Z,6.97
2022-09-29T19:03:20.835Z,5.95
2022-09-29T19:05:48.020Z,7.60
2022-09-29T19:08:16.959Z,6.63
2022-09-29T19:11:01.061Z,8.00
2022-09-29T19:13:30.309Z,6.47
2022-09-29T19:15:59.292Z,6.25
2022-09-29T19:18:27.344Z,7.45
2022-09-29T19:20:56.326Z,7.50
2022-09-29T19:23:25.400Z,5.30
2022-09-29T19:25:54.354Z,6.00
2022-09-29T19:28:23.174Z,11.23
2022-09-29T19:30:50.584Z,8.00
2022-09-29T19:33:21.882Z,6.65
2022-09-29T19:35:54.394Z,11.10
2022-09-29T19:38:22.373Z,7.30
2022-09-29T19:40:51.939Z,6.88
2022-09-29T19:43:21.857Z,6.75
2022-09-29T19:45:50.190Z,8.45
2022-09-29T19:48:19.918Z,8.85
2022-09-29T19:51:07.238Z,6.43
2022-09-29T19:53:35.017Z,6.65
2022-09-29T19:56:07.362Z,9.40
2022-09-29T19:58:34.864Z,7.68
2022-09-29T20:01:02.226Z,6.55
2022-09-29T20:03:30.497Z,6.88
2022-09-29T20:06:06.679Z,9.93
2022-09-29T20:08:34.965Z,9.55
2022-09-29T20:11:10.727Z,14.13
2022-09-29T20:13:39.180Z,9.18
2022-09-29T20:16:08.168Z,6.30
2022-09-29T20:18:37.816Z,5.90
2022-09-29T20:21:10.423Z,5.25
2022-09-29T20:23:39.217Z,7.85
2022-09-29T20:26:09.031Z,5.85
2022-09-29T20:28:37.287Z,6.00
2022-09-29T20:31:07.317Z,7.70
2022-09-29T20:33:36.258Z,7.03
2022-09-29T20:36:04.882Z,6.32
2022-09-29T20:38:34.459Z,6.85
2022-09-29T20:41:02.846Z,5.93
2022-09-29T20:43:30.087Z,5.78
2022-09-29T20:45:59.590Z,6.70
2022-09-29T20:48:27.305Z,6.88
2022-09-29T20:50:54.201Z,6.75
2022-09-29T20:53:21.233Z,5.25
2022-09-29T20:55:48.162Z,4.60
2022-09-29T20:58:15.631Z,7.47
2022-09-29T21:00:42.578Z,6.60
2022-09-29T21:03:09.785Z,6.32
2022-09-29T21:05:36.684Z,6.38
2022-09-29T21:08:03.705Z,5.65
2022-09-29T21:10:30.613Z,4.80
2022-09-29T21:12:57.664Z,4.68
2022-09-29T21:15:24.696Z,5.80
2022-09-29T21:17:51.584Z,5.63
2022-09-29T21:20:18.729Z,6.00
2022-09-29T21:22:45.984Z,6.13
2022-09-29T21:25:12.894Z,4.75
2022-09-29T21:27:41.604Z,5.78
2022-09-29T21:30:09.906Z,5.65
2022-09-29T21:32:36.781Z,4.25
2022-09-29T21:35:04.228Z,4.00
2022-09-29T21:37:31.189Z,8.07
2022-09-29T21:39:58.082Z,3.63
2022-09-29T21:42:25.051Z,3.97
2022-09-29T21:44:55.914Z,5.53
2022-09-29T21:47:44.729Z,4.82
2022-09-29T21:50:11.699Z,7.57
2022-09-29T21:52:38.598Z,5.88
2022-09-29T21:55:05.883Z,3.67
2022-09-29T21:57:32.738Z,4.03
2022-09-29T21:59:59.626Z,4.43
2022-09-29T22:02:26.725Z,6.63
2022-09-29T22:04:53.682Z,4.70
2022-09-29T22:07:20.694Z,5.45
2022-09-29T22:09:47.640Z,5.47
2022-09-29T22:12:14.604Z,5.25
2022-09-29T22:14:43.951Z,5.30
2022-09-29T22:17:13.152Z,6.63
2022-09-29T22:19:40.132Z,4.63
2022-09-29T22:22:07.136Z,4.70
2022-09-29T22:24:34.152Z,5.53
2022-09-29T22:27:01.171Z,4.43
2022-09-29T22:29:28.259Z,6.18
2022-09-29T22:31:55.354Z,5.13
2022-09-29T22:34:25.553Z,4.63
2022-09-29T22:36:52.712Z,4.88
2022-09-29T22:39:22.014Z,6.35
2022-09-29T22:41:52.990Z,6.50
2022-09-29T22:44:20.000Z,5.93
2022-09-29T22:46:47.029Z,9.00
2022-09-29T22:49:16.681Z,6.22
2022-09-29T22:51:43.936Z,6.80
2022-09-29T22:54:14.369Z,5.40
2022-09-29T22:56:41.982Z,5.00
2022-09-29T22:59:09.166Z,4.55
2022-09-29T23:01:36.245Z,6.90
2022-09-29T23:04:04.338Z,5.15
2022-09-29T23:06:32.342Z,6.93
2022-09-29T23:09:01.799Z,6.15
2022-09-29T23:11:31.253Z,4.93
2022-09-29T23:14:00.257Z,6.72
2022-09-29T23:16:28.362Z,6.07
2022-09-29T23:18:58.462Z,8.80
2022-09-29T23:21:25.878Z,6.88
2022-09-29T23:24:00.889Z,5.93
2022-09-29T23:26:29.805Z,6.50
2022-09-29T23:28:56.931Z,6.55
2022-09-29T23:31:24.250Z,6.25
2022-09-29T23:33:56.047Z,6.22
2022-09-29T23:36:25.027Z,6.72
2022-09-29T23:39:10.704Z,5.47
2022-09-29T23:41:43.381Z,8.18
2022-09-29T23:44:12.262Z,6.30
2022-09-29T23:46:40.103Z,6.07
2022-09-29T23:49:09.775Z,7.85
2022-09-29T23:51:40.317Z,5.10
2022-09-29T23:54:08.251Z,5.40
2022-09-29T23:56:35.567Z,6.00
2022-09-29T23:59:02.587Z,6.20
